Time;durP1;ratioP1;P1;durP2;ratioP2;P2;SDS_P1;SDS_P2;PMS_P1;PMS_P2;Temp;Humidity;BMP_temperature;BMP_pressure;BME280_temperature;BME280_humidity;BME280_pressure;Samples;Min_cycle;Max_cycle;Signal;HPM_P1;HPM_P2
2023/02/06 00:00:19;;;;;;;18.88;13.85;;;4.40;99.90;;;;;;5030983;28;20097;-55
2023/02/06 00:02:44;;;;;;;20.48;14.38;;;4.30;99.90;;;;;;5029638;28;20091;-54
2023/02/06 00:05:10;;;;;;;20.73;14.80;;;4.30;99.90;;;;;;5030748;28;20459;-55
2023/02/06 00:07:35;;;;;;;21.52;14.00;;;4.30;99.90;;;;;;5031062;28;20121;-56
2023/02/06 00:10:01;;;;;;;18.30;14.07;;;4.20;99.90;;;;;;5013296;28;20021;-52
2023/02/06 00:12:26;;;;;;;17.27;13.32;;;4.20;99.90;;;;;;5030661;28;20040;-54
2023/02/06 00:14:52;;;;;;;19.50;14.02;;;4.20;99.90;;;;;;5014667;28;20029;-53
2023/02/06 00:17:17;;;;;;;15.75;12.77;;;4.20;99.90;;;;;;5016323;28;20124;-52
2023/02/06 00:19:43;;;;;;;15.23;12.05;;;4.20;99.90;;;;;;5031898;28;20036;-54
2023/02/06 00:22:09;;;;;;;15.82;12.27;;;4.20;99.90;;;;;;5033130;28;20087;-57
2023/02/06 00:24:35;;;;;;;147.23;79.05;;;4.20;99.90;;;;;;5033638;28;20033;-54
2023/02/06 00:27:00;;;;;;;31.88;20.95;;;4.20;99.90;;;;;;5034194;28;20022;-53
2023/02/06 00:29:26;;;;;;;14.95;12.20;;;4.20;99.90;;;;;;5016833;28;20025;-56
2023/02/06 00:31:51;;;;;;;17.00;12.55;;;4.20;99.90;;;;;;5034594;28;20467;-57
2023/02/06 00:34:17;;;;;;;14.65;12.05;;;4.20;99.90;;;;;;5034196;28;20033;-58
2023/02/06 00:36:42;;;;;;;14.65;11.00;;;4.30;99.90;;;;;;5016726;28;20091;-55
2023/02/06 00:39:08;;;;;;;20.10;12.50;;;4.40;99.90;;;;;;5034251;28;20029;-57
2023/02/06 00:41:33;;;;;;;14.55;11.25;;;4.40;99.90;;;;;;5016829;28;20049;-55
2023/02/06 00:43:59;;;;;;;14.35;12.13;;;4.40;99.90;;;;;;5034344;28;20030;-54
2023/02/06 00:46:24;;;;;;;13.63;11.32;;;4.50;99.90;;;;;;5034618;28;20079;-58
2023/02/06 00:48:50;;;;;;;14.55;11.18;;;4.40;99.90;;;;;;5034592;28;20041;-59
2023/02/06 00:51:15;;;;;;;14.88;12.07;;;4.50;99.90;;;;;;5035215;28;20112;-58
2023/02/06 00:53:41;;;;;;;15.00;12.13;;;4.50;99.90;;;;;;5034698;28;20029;-56
2023/02/06 00:56:06;;;;;;;14.77;11.43;;;4.60;99.90;;;;;;5016723;28;20082;-57
2023/02/06 00:58:32;;;;;;;15.65;12.25;;;4.60;99.90;;;;;;5016194;28;20079;-57
2023/02/06 01:00:57;;;;;;;15.68;12.25;;;4.60;99.90;;;;;;5016473;28;20014;-57
2023/02/06 01:03:23;;;;;;;13.77;11.30;;;4.60;99.90;;;;;;5034152;28;20719;-56
2023/02/06 01:05:48;;;;;;;13.57;11.57;;;4.70;99.90;;;;;;5034095;28;20444;-55
2023/02/06 01:08:14;;;;;;;14.05;11.45;;;4.70;99.90;;;;;;5034455;28;20030;-55
2023/02/06 01:10:41;;;;;;;14.02;11.35;;;4.70;99.90;;;;;;5034013;28;20116;-56
2023/02/06 01:13:07;;;;;;;12.63;10.88;;;4.70;99.90;;;;;;5033235;28;20107;-54
2023/02/06 01:15:32;;;;;;;13.15;11.15;;;4.70;99.90;;;;;;5033857;28;20018;-59
2023/02/06 01:17:59;;;;;;;15.25;11.18;;;4.70;99.90;;;;;;5033645;28;20030;-57
2023/02/06 01:20:25;;;;;;;13.15;10.73;;;4.70;99.90;;;;;;5033712;28;20033;-59
2023/02/06 01:22:50;;;;;;;13.38;10.60;;;4.70;99.90;;;;;;5033563;28;20100;-54
2023/02/06 01:25:16;;;;;;;16.67;10.95;;;4.60;99.90;;;;;;5033530;28;20026;-59
2023/02/06 01:27:41;;;;;;;12.48;10.45;;;4.70;99.90;;;;;;5015332;28;20026;-58
2023/02/06 01:30:08;;;;;;;13.13;11.15;;;4.70;99.90;;;;;;5033710;28;20025;-59
2023/02/06 01:32:38;;;;;;;14.18;11.57;;;4.70;99.90;;;;;;5033229;28;20446;-57
2023/02/06 01:35:05;;;;;;;13.05;10.68;;;4.70;99.90;;;;;;5033280;28;20029;-58
2023/02/06 01:37:31;;;;;;;10.93;9.68;;;4.70;99.90;;;;;;5015271;28;20036;-57
2023/02/06 01:39:57;;;;;;;12.68;10.15;;;4.70;99.90;;;;;;5033530;28;20018;-58
2023/02/06 01:42:23;;;;;;;13.77;9.93;;;4.70;99.90;;;;;;5033525;28;20075;-55
2023/02/06 01:44:48;;;;;;;13.77;10.63;;;4.60;99.90;;;;;;5033857;28;20028;-58
2023/02/06 01:47:14;;;;;;;10.68;9.35;;;4.70;99.90;;;;;;5033795;28;20022;-58
2023/02/06 01:49:48;;;;;;;14.77;9.82;;;4.70;99.90;;;;;;5014975;28;20045;-55
2023/02/06 01:52:22;;;;;;;11.25;9.90;;;4.70;99.90;;;;;;5032972;28;20057;-58
2023/02/06 01:54:52;;;;;;;12.10;9.45;;;4.70;99.90;;;;;;5032960;28;20028;-58
2023/02/06 01:57:18;;;;;;;12.57;9.48;;;4.70;99.90;;;;;;5014753;28;20034;-58
2023/02/06 01:59:48;;;;;;;12.10;9.80;;;4.70;99.90;;;;;;5032974;28;20098;-58
2023/02/06 02:02:13;;;;;;;10.23;8.27;;;4.70;99.90;;;;;;5015062;28;20109;-58
2023/02/06 02:04:39;;;;;;;12.25;8.32;;;4.60;99.90;;;;;;5032602;28;20045;-56
2023/02/06 02:07:08;;;;;;;8.32;7.28;;;4.60;99.90;;;;;;5032640;28;20029;-58
2023/02/06 02:09:34;;;;;;;9.02;8.00;;;4.60;99.90;;;;;;5032604;28;20083;-58
2023/02/06 02:11:59;;;;;;;8.75;7.82;;;4.50;99.90;;;;;;5014908;28;20025;-54
2023/02/06 02:14:25;;;;;;;10.65;8.50;;;4.50;99.90;;;;;;5032351;28;20374;-54
2023/02/06 02:17:00;;;;;;;13.23;7.90;;;4.50;99.90;;;;;;5014680;28;20025;-58
2023/02/06 02:19:39;;;;;;;9.77;7.87;;;4.40;99.90;;;;;;5032350;28;20029;-58
2023/02/06 02:22:42;;;;;;;12.10;9.00;;;4.30;99.90;;;;;;5032110;28;20067;-56
2023/02/06 02:25:45;;;;;;;9.93;8.82;;;4.30;99.90;;;;;;5031722;28;20025;-58
2023/02/06 02:28:31;;;;;;;11.60;9.38;;;4.20;99.90;;;;;;5031986;28;20025;-55
2023/02/06 02:31:35;;;;;;;12.38;10.02;;;4.10;99.90;;;;;;5031981;28;20028;-58
2023/02/06 02:34:38;;;;;;;9.13;7.18;;;4.20;99.90;;;;;;5026790;28;20041;-55
2023/02/06 02:37:24;;;;;;;10.85;7.95;;;4.10;99.90;;;;;;5032122;28;20033;-57
2023/02/06 02:40:02;;;;;;;12.73;7.93;;;4.00;99.90;;;;;;5031622;28;20481;-57
2023/02/06 02:43:02;;;;;;;10.80;7.72;;;4.00;99.90;;;;;;5014066;28;20198;-55
2023/02/06 02:45:37;;;;;;;11.07;8.68;;;4.00;99.90;;;;;;5013757;28;20028;-55
2023/02/06 02:48:09;;;;;;;10.45;7.40;;;4.00;99.90;;;;;;5031730;28;20025;-58
2023/02/06 02:50:36;;;;;;;10.10;7.97;;;4.00;99.90;;;;;;5032412;28;20036;-58
2023/02/06 02:53:04;;;;;;;12.50;8.05;;;4.00;99.90;;;;;;5031494;28;20440;-57
2023/02/06 02:55:29;;;;;;;10.23;8.20;;;4.00;99.90;;;;;;5013801;28;20026;-56
2023/02/06 02:58:11;;;;;;;11.00;8.43;;;4.00;99.90;;;;;;5031294;28;20111;-55
2023/02/06 03:00:43;;;;;;;11.40;8.95;;;4.00;99.90;;;;;;5031798;28;20405;-54
2023/02/06 03:03:11;;;;;;;11.48;8.18;;;4.00;99.90;;;;;;5031481;28;20034;-58
2023/02/06 03:05:50;;;;;;;12.25;9.05;;;3.90;99.90;;;;;;5014004;28;20029;-59
2023/02/06 03:08:32;;;;;;;12.90;9.07;;;3.90;99.90;;;;;;5013978;28;20017;-59
2023/02/06 03:11:12;;;;;;;10.35;8.48;;;3.90;99.90;;;;;;5031739;28;20053;-55
2023/02/06 03:13:41;;;;;;;13.27;8.45;;;3.90;99.90;;;;;;5031337;28;20021;-58
2023/02/06 03:16:27;;;;;;;11.13;8.48;;;3.90;99.90;;;;;;5031603;28;20022;-58
2023/02/06 03:19:03;;;;;;;10.27;8.18;;;3.90;99.90;;;;;;5031436;28;20032;-56
2023/02/06 03:21:30;;;;;;;10.13;8.18;;;4.00;99.90;;;;;;5013964;28;20096;-58
2023/02/06 03:24:01;;;;;;;11.43;8.27;;;4.00;99.90;;;;;;5013417;28;20021;-57
2023/02/06 03:26:29;;;;;;;13.32;8.07;;;4.00;99.90;;;;;;5031202;28;20022;-57
2023/02/06 03:29:01;;;;;;;10.38;8.32;;;3.90;99.90;;;;;;5031395;28;20025;-58
2023/02/06 03:31:45;;;;;;;9.82;8.40;;;4.00;99.90;;;;;;5013721;28;20036;-56
2023/02/06 03:34:21;;;;;;;12.40;8.40;;;4.00;99.90;;;;;;5031195;28;20028;-57
2023/02/06 03:36:49;;;;;;;10.45;8.38;;;4.00;99.90;;;;;;5013641;28;20044;-58
2023/02/06 03:39:14;;;;;;;13.43;9.60;;;4.00;99.90;;;;;;5013538;28;20025;-54
2023/02/06 03:41:42;;;;;;;10.00;8.85;;;4.00;99.90;;;;;;5013472;28;20032;-59
2023/02/06 03:44:12;;;;;;;9.40;7.30;;;3.90;99.90;;;;;;5013290;28;20022;-58
2023/02/06 03:46:42;;;;;;;11.02;7.85;;;4.00;99.90;;;;;;5031241;28;20100;-57
2023/02/06 03:49:11;;;;;;;9.63;7.70;;;4.00;99.90;;;;;;5031384;28;20477;-55
2023/02/06 03:52:11;;;;;;;11.35;8.18;;;4.00;99.90;;;;;;5035312;28;20037;-57
2023/02/06 03:54:44;;;;;;;8.20;6.75;;;4.00;99.90;;;;;;5030118;28;20034;-57
2023/02/06 03:57:13;;;;;;;8.63;7.07;;;4.10;99.90;;;;;;5016929;28;20021;-55
2023/02/06 03:59:38;;;;;;;9.95;7.72;;;4.10;99.90;;;;;;5034824;28;20049;-56
2023/02/06 04:02:04;;;;;;;7.88;6.97;;;4.10;99.90;;;;;;5017182;28;20087;-57
2023/02/06 04:04:39;;;;;;;9.68;7.30;;;4.10;99.90;;;;;;5034919;28;20026;-54
2023/02/06 04:07:14;;;;;;;11.43;7.40;;;4.00;99.90;;;;;;5017329;28;20021;-57
2023/02/06 04:09:40;;;;;;;;;;;4.00;99.90;;;;;;5035795;28;20112;-55
2023/02/06 04:12:06;;;;;;;11.00;8.43;;;4.00;99.90;;;;;;5035673;28;19951;-53
2023/02/06 04:14:32;;;;;;;10.88;8.50;;;4.10;99.90;;;;;;5016953;28;20033;-53
2023/02/06 04:16:57;;;;;;;10.95;8.05;;;4.10;99.90;;;;;;5017056;28;20033;-57
2023/02/06 04:19:23;;;;;;;9.73;7.80;;;4.20;99.90;;;;;;5034697;28;20037;-55
2023/02/06 04:21:48;;;;;;;9.35;7.82;;;4.20;99.90;;;;;;5017045;28;20080;-56
2023/02/06 04:24:14;;;;;;;9.40;7.00;;;4.20;99.90;;;;;;5034450;28;20044;-57
2023/02/06 04:26:40;;;;;;;10.35;7.10;;;4.20;99.90;;;;;;5016934;28;20067;-58
2023/02/06 04:29:05;;;;;;;8.68;7.07;;;4.30;99.90;;;;;;5034499;28;20076;-55
2023/02/06 04:31:32;;;;;;;7.95;7.15;;;4.20;99.90;;;;;;5034716;28;20022;-55
2023/02/06 04:33:57;;;;;;;9.55;7.40;;;4.20;99.90;;;;;;5034134;28;20037;-54
2023/02/06 04:36:23;;;;;;;11.48;7.03;;;4.20;99.90;;;;;;5034472;28;20029;-55
2023/02/06 04:38:49;;;;;;;6.90;6.20;;;4.20;99.90;;;;;;5016766;28;20022;-53
2023/02/06 04:41:15;;;;;;;9.00;7.10;;;4.20;99.90;;;;;;5034530;28;20443;-51
2023/02/06 04:43:40;;;;;;;7.35;6.40;;;4.10;99.90;;;;;;5034097;28;20029;-54
2023/02/06 04:46:06;;;;;;;13.50;6.97;;;4.10;99.90;;;;;;5016540;28;20045;-52
2023/02/06 04:48:31;;;;;;;6.45;5.72;;;4.10;99.90;;;;;;5016473;28;20032;-54
2023/02/06 04:50:57;;;;;;;8.02;6.68;;;4.10;99.90;;;;;;5034234;28;20083;-55
2023/02/06 04:53:22;;;;;;;7.13;6.18;;;4.10;99.90;;;;;;5016231;28;20032;-52
2023/02/06 04:55:48;;;;;;;8.25;6.50;;;4.10;99.90;;;;;;5016390;28;20025;-56
2023/02/06 04:58:13;;;;;;;9.20;7.13;;;4.10;99.90;;;;;;5033662;28;20493;-51
2023/02/06 05:00:39;;;;;;;8.40;6.68;;;4.20;99.90;;;;;;5015595;28;20021;-56
2023/02/06 05:03:04;;;;;;;10.52;7.68;;;4.10;99.90;;;;;;5033534;28;20026;-51
2023/02/06 05:05:30;;;;;;;9.35;7.20;;;4.10;99.90;;;;;;5033888;28;20033;-53
2023/02/06 05:07:55;;;;;;;7.20;6.45;;;4.20;99.90;;;;;;5033869;28;20025;-57
2023/02/06 05:10:21;;;;;;;8.45;7.18;;;4.20;99.90;;;;;;5033949;28;20052;-57
2023/02/06 05:12:49;;;;;;;12.07;8.45;;;4.20;99.90;;;;;;5033652;28;20075;-52
2023/02/06 05:15:15;;;;;;;11.30;8.30;;;4.20;99.90;;;;;;5033682;28;20036;-57
2023/02/06 05:17:41;;;;;;;12.35;8.50;;;4.20;99.90;;;;;;5033752;28;20052;-51
2023/02/06 05:20:07;;;;;;;11.32;8.27;;;4.10;99.90;;;;;;5015954;28;20022;-52
2023/02/06 05:22:33;;;;;;;10.02;8.43;;;4.00;99.90;;;;;;5033539;28;20038;-52
2023/02/06 05:24:58;;;;;;;11.25;8.20;;;4.00;99.90;;;;;;5033613;28;20528;-56
2023/02/06 05:27:24;;;;;;;12.38;8.93;;;3.90;99.90;;;;;;5015774;28;20067;-57
2023/02/06 05:29:50;;;;;;;15.30;9.40;;;3.80;99.90;;;;;;5015834;28;20112;-57
2023/02/06 05:32:17;;;;;;;11.07;8.88;;;3.80;99.90;;;;;;5033456;28;20052;-58
2023/02/06 05:34:42;;;;;;;11.43;8.77;;;3.90;99.90;;;;;;5015598;28;20049;-57
2023/02/06 05:37:08;;;;;;;10.88;8.20;;;3.90;99.90;;;;;;5033394;28;20404;-59
2023/02/06 05:39:33;;;;;;;11.27;8.90;;;3.90;99.90;;;;;;5033239;28;20037;-57
2023/02/06 05:41:59;;;;;;;11.65;8.75;;;3.90;99.90;;;;;;5033391;28;20029;-54
2023/02/06 05:44:24;;;;;;;11.15;8.75;;;3.90;99.90;;;;;;5015453;28;20021;-53
2023/02/06 05:46:50;;;;;;;11.30;8.82;;;3.90;99.90;;;;;;5015342;28;20120;-57
2023/02/06 05:49:15;;;;;;;11.55;8.40;;;4.00;99.90;;;;;;5015456;28;20037;-57
2023/02/06 05:51:41;;;;;;;11.35;9.25;;;4.10;99.90;;;;;;5033173;28;20025;-57
2023/02/06 05:54:06;;;;;;;13.30;8.57;;;4.10;99.90;;;;;;5032814;28;20042;-56
2023/02/06 05:56:32;;;;;;;11.02;8.75;;;4.10;99.90;;;;;;5033227;28;20445;-56
2023/02/06 05:58:57;;;;;;;10.43;8.27;;;4.10;99.90;;;;;;5035856;23;20501;-64
2023/02/06 06:01:23;;;;;;;10.73;8.77;;;4.10;99.90;;;;;;5017627;28;20029;-65
2023/02/06 06:03:49;;;;;;;10.85;8.95;;;4.10;99.90;;;;;;5034773;28;20101;-64
2023/02/06 06:06:14;;;;;;;12.23;8.98;;;4.10;99.90;;;;;;5034928;28;20033;-62
2023/02/06 06:08:40;;;;;;;11.52;9.57;;;4.10;99.90;;;;;;5017823;28;20076;-64
2023/02/06 06:11:06;;;;;;;12.52;8.75;;;4.20;99.90;;;;;;5034642;28;20036;-64
2023/02/06 06:13:31;;;;;;;13.63;8.52;;;4.10;99.90;;;;;;5034939;28;20052;-65
2023/02/06 06:15:57;;;;;;;10.98;8.32;;;4.10;99.90;;;;;;5017636;28;20118;-63
2023/02/06 06:18:23;;;;;;;11.43;8.75;;;4.00;99.90;;;;;;5034942;28;20034;-64
2023/02/06 06:20:48;;;;;;;12.93;9.73;;;3.90;99.90;;;;;;5035238;28;20021;-64
2023/02/06 06:23:14;;;;;;;12.73;9.73;;;3.90;99.90;;;;;;5034597;28;20416;-64
2023/02/06 06:25:39;;;;;;;9.90;8.40;;;3.80;99.90;;;;;;5035188;28;20026;-64
2023/02/06 06:28:06;;;;;;;12.15;9.35;;;3.90;99.90;;;;;;5035393;28;20028;-64
2023/02/06 06:30:31;;;;;;;16.15;9.57;;;3.80;99.90;;;;;;5017282;28;20128;-63
2023/02/06 06:32:57;;;;;;;14.10;9.07;;;3.80;99.90;;;;;;5034523;28;20057;-64
2023/02/06 06:35:22;;;;;;;12.57;8.88;;;3.80;99.90;;;;;;5016686;28;20033;-65
2023/02/06 06:37:48;;;;;;;13.65;9.65;;;3.90;99.90;;;;;;5034855;28;20037;-62
2023/02/06 06:40:13;;;;;;;16.48;10.73;;;3.90;99.90;;;;;;5033828;28;20507;-63
2023/02/06 06:42:39;;;;;;;13.57;9.45;;;4.00;99.90;;;;;;5033399;28;20026;-63
2023/02/06 06:45:05;;;;;;;15.93;10.93;;;3.90;99.90;;;;;;5033043;28;20064;-61
2023/02/06 06:47:30;;;;;;;15.10;9.75;;;4.00;99.90;;;;;;5033141;28;20029;-62
2023/02/06 06:49:56;;;;;;;16.55;9.32;;;4.00;99.90;;;;;;5033056;28;20374;-62
2023/02/06 06:52:21;;;;;;;15.15;8.40;;;4.00;99.90;;;;;;5015439;28;20032;-63
2023/02/06 06:54:47;;;;;;;14.50;9.50;;;4.00;99.90;;;;;;5033234;28;20059;-61
2023/02/06 06:57:12;;;;;;;11.15;8.10;;;4.00;99.90;;;;;;5015326;28;20044;-61
2023/02/06 06:59:39;;;;;;;13.38;8.25;;;4.00;99.90;;;;;;5015853;28;20033;-64
2023/02/06 07:02:05;;;;;;;10.68;8.57;;;4.00;99.90;;;;;;5034082;28;20029;-62
2023/02/06 07:04:31;;;;;;;12.75;8.57;;;3.90;99.90;;;;;;5015343;28;20030;-63
2023/02/06 07:06:57;;;;;;;14.05;9.63;;;4.00;99.90;;;;;;5033298;28;20071;-63
2023/02/06 07:09:22;;;;;;;12.98;8.88;;;4.00;99.90;;;;;;5032755;28;20396;-62
2023/02/06 07:11:48;;;;;;;16.05;9.70;;;4.10;99.90;;;;;;5033252;28;20117;-63
2023/02/06 07:14:14;;;;;;;15.45;8.90;;;4.00;99.90;;;;;;5033159;28;20036;-62
2023/02/06 07:16:39;;;;;;;15.10;9.68;;;4.00;99.90;;;;;;5032976;28;20599;-63
2023/02/06 07:19:06;;;;;;;14.05;8.63;;;4.00;99.90;;;;;;5032135;28;20032;-58
2023/02/06 07:21:31;;;;;;;13.13;8.45;;;4.00;99.90;;;;;;5032643;28;20025;-62
2023/02/06 07:23:57;;;;;;;18.38;9.43;;;3.90;99.90;;;;;;5014496;28;20435;-63
2023/02/06 07:26:23;;;;;;;12.13;9.00;;;3.80;99.90;;;;;;5015198;28;20056;-62
2023/02/06 07:28:48;;;;;;;14.75;9.98;;;3.80;99.90;;;;;;5033288;28;20074;-64
2023/02/06 07:31:15;;;;;;;18.05;11.23;;;3.80;99.90;;;;;;5033195;28;20021;-62
2023/02/06 07:33:40;;;;;;;15.13;10.50;;;3.80;99.90;;;;;;5015215;28;20516;-62
2023/02/06 07:36:09;;;;;;;14.68;10.15;;;3.80;99.90;;;;;;5033470;28;20036;-63
2023/02/06 07:38:35;;;;;;;10.63;8.02;;;3.90;99.90;;;;;;5032952;28;20100;-64
2023/02/06 07:41:02;;;;;;;13.07;8.60;;;4.00;99.90;;;;;;5033160;28;20068;-62
2023/02/06 07:43:28;;;;;;;16.60;8.60;;;4.10;99.90;;;;;;5033016;28;20493;-63
2023/02/06 07:45:53;;;;;;;13.05;9.55;;;4.20;99.90;;;;;;5034072;28;20029;-64
2023/02/06 07:48:19;;;;;;;11.73;9.57;;;4.40;99.90;;;;;;5014656;28;20021;-63
2023/02/06 07:50:44;;;;;;;12.32;8.52;;;4.40;99.90;;;;;;5032292;28;20022;-62
2023/02/06 07:53:10;;;;;;;16.77;10.90;;;4.50;99.90;;;;;;5032699;28;20490;-63
2023/02/06 07:55:37;;;;;;;17.02;10.35;;;4.50;99.90;;;;;;5032869;28;20064;-65
2023/02/06 07:58:02;;;;;;;13.05;9.88;;;4.50;99.90;;;;;;5014778;28;20567;-61
2023/02/06 08:00:28;;;;;;;11.15;8.63;;;4.50;99.90;;;;;;5032593;28;20033;-63
2023/02/06 08:02:53;;;;;;;11.90;9.43;;;4.40;99.90;;;;;;5032814;28;20025;-65
2023/02/06 08:05:19;;;;;;;16.77;9.60;;;4.50;99.90;;;;;;5033074;28;20448;-61
2023/02/06 08:07:44;;;;;;;13.60;9.90;;;4.50;99.90;;;;;;5032968;28;20054;-64
2023/02/06 08:10:10;;;;;;;15.27;11.07;;;4.60;99.90;;;;;;5032426;28;20025;-64
2023/02/06 08:12:35;;;;;;;15.25;10.77;;;4.50;99.90;;;;;;5014640;28;20080;-63
2023/02/06 08:15:01;;;;;;;13.82;10.18;;;4.50;99.90;;;;;;5032590;28;20377;-64
2023/02/06 08:17:26;;;;;;;14.88;10.07;;;4.50;99.90;;;;;;5032164;28;20469;-64
2023/02/06 08:19:52;;;;;;;16.00;10.63;;;4.50;99.90;;;;;;5031868;28;20057;-62
2023/02/06 08:22:18;;;;;;;15.25;10.40;;;4.50;99.90;;;;;;5031895;28;20289;-59
2023/02/06 08:24:44;;;;;;;16.00;10.02;;;4.50;99.90;;;;;;5032756;28;20022;-63
2023/02/06 08:27:09;;;;;;;14.25;10.35;;;4.50;99.90;;;;;;5032293;28;20037;-64
2023/02/06 08:29:41;;;;;;;16.65;10.48;;;4.60;99.90;;;;;;5032379;28;20374;-64
2023/02/06 08:32:10;;;;;;;16.10;10.43;;;4.70;99.90;;;;;;5032225;28;20025;-63
2023/02/06 08:34:37;;;;;;;14.63;10.85;;;4.80;99.90;;;;;;5031701;28;20527;-59
2023/02/06 08:37:02;;;;;;;15.88;10.38;;;4.80;99.90;;;;;;5037670;28;20067;-59
2023/02/06 08:39:28;;;;;;;16.05;10.77;;;5.00;99.90;;;;;;5047523;28;20442;-61
2023/02/06 08:41:54;;;;;;;15.30;9.98;;;5.00;99.90;;;;;;5030912;28;20029;-62
2023/02/06 08:44:19;;;;;;;20.27;11.23;;;5.10;99.90;;;;;;5033887;28;20097;-61
2023/02/06 08:46:46;;;;;;;18.00;10.25;;;5.10;99.90;;;;;;5017769;28;20088;-58
2023/02/06 08:49:16;;;;;;;17.15;10.75;;;5.30;99.90;;;;;;5014565;28;20026;-59
2023/02/06 08:51:42;;;;;;;15.70;10.95;;;5.40;99.90;;;;;;5024751;28;20112;-58
2023/02/06 08:54:11;;;;;;;15.88;10.68;;;5.50;99.90;;;;;;5016984;28;20482;-56
2023/02/06 08:56:37;;;;;;;18.80;10.85;;;5.50;99.90;;;;;;5017881;28;20036;-61
2023/02/06 08:59:03;;;;;;;14.05;10.43;;;5.60;99.90;;;;;;5024306;28;20034;-57
2023/02/06 09:01:31;;;;;;;14.68;10.82;;;5.60;99.90;;;;;;5035874;28;20021;-55
2023/02/06 09:03:59;;;;;;;14.23;9.73;;;5.60;99.90;;;;;;5033150;28;20022;-54
2023/02/06 09:06:25;;;;;;;14.98;11.15;;;5.60;99.90;;;;;;5029637;28;20033;-54
2023/02/06 09:08:52;;;;;;;14.40;9.93;;;5.50;99.90;;;;;;5033564;28;20025;-59
2023/02/06 09:11:20;;;;;;;15.13;10.30;;;5.30;99.90;;;;;;5033462;28;20052;-60
2023/02/06 09:13:47;;;;;;;16.58;11.05;;;5.30;99.90;;;;;;5033638;28;20030;-59
2023/02/06 09:16:14;;;;;;;16.92;10.60;;;5.30;99.90;;;;;;5033853;28;20477;-61
2023/02/06 09:18:40;;;;;;;16.08;10.13;;;5.30;99.90;;;;;;5015761;28;20026;-59
2023/02/06 09:21:16;;;;;;;17.20;9.55;;;5.50;99.90;;;;;;5033692;28;20037;-57
2023/02/06 09:23:50;;;;;;;13.85;8.88;;;6.40;99.90;;;;;;5033454;28;20065;-59
2023/02/06 09:26:19;;;;;;;9.88;6.65;;;7.40;99.90;;;;;;5033296;28;20097;-58
2023/02/06 09:28:44;;;;;;;6.45;4.82;;;8.70;99.90;;;;;;5033525;28;20021;-56
2023/02/06 09:31:10;;;;;;;7.03;4.35;;;9.20;99.90;;;;;;5033855;28;20022;-56
2023/02/06 09:33:37;;;;;;;6.95;4.13;;;8.70;99.90;;;;;;5015751;28;20035;-58
2023/02/06 09:36:03;;;;;;;8.30;4.50;;;7.50;99.90;;;;;;5033577;28;20068;-57
2023/02/06 09:38:29;;;;;;;7.25;3.83;;;6.50;99.90;;;;;;5033375;28;20087;-58
2023/02/06 09:40:56;;;;;;;7.50;4.65;;;6.40;99.90;;;;;;5014784;28;20489;-57
2023/02/06 09:43:22;;;;;;;4.93;3.85;;;6.60;99.90;;;;;;5032734;28;20503;-59
2023/02/06 09:45:54;;;;;;;4.50;3.80;;;6.80;99.90;;;;;;5033212;28;20025;-60
2023/02/06 09:48:24;;;;;;;6.85;3.65;;;7.30;99.90;;;;;;5015219;28;20017;-59
2023/02/06 09:51:08;;;;;;;5.72;3.45;;;7.10;99.90;;;;;;5027912;28;20083;-60
2023/02/06 09:53:53;;;;;;;4.60;3.90;;;6.60;99.90;;;;;;5032923;28;20029;-59
2023/02/06 09:56:43;;;;;;;4.93;3.60;;;5.90;99.90;;;;;;5002296;28;20393;-58
2023/02/06 09:59:23;;;;;;;7.18;3.78;;;5.80;99.90;;;;;;5029335;28;20284;-60
2023/02/06 10:02:10;;;;;;;5.65;3.22;;;5.60;99.90;;;;;;5033560;28;20039;-60
2023/02/06 10:05:01;;;;;;;3.88;2.95;;;6.10;99.90;;;;;;5027586;28;20030;-59
2023/02/06 10:07:45;;;;;;;4.07;3.08;;;6.90;99.90;;;;;;5016513;28;20103;-60
2023/02/06 10:10:34;;;;;;;6.00;3.10;;;7.60;99.90;;;;;;5033172;28;20037;-57
2023/02/06 10:13:09;;;;;;;3.72;3.30;;;7.70;99.90;;;;;;5021240;28;20112;-59
2023/02/06 10:15:44;;;;;;;5.43;3.28;;;7.90;99.90;;;;;;5021095;28;20028;-59
2023/02/06 10:18:43;;;;;;;4.72;3.20;;;7.90;99.90;;;;;;5032900;28;20045;-58
2023/02/06 10:21:18;;;;;;;6.20;3.53;;;7.70;99.90;;;;;;5013303;28;20030;-60
2023/02/06 10:23:54;;;;;;;4.40;3.50;;;8.10;99.90;;;;;;5012677;28;20026;-59
2023/02/06 10:26:21;;;;;;;5.78;3.10;;;8.50;99.90;;;;;;4995446;28;20268;-59
2023/02/06 10:28:54;;;;;;;2.55;2.35;;;8.70;99.90;;;;;;5012860;28;20025;-59
2023/02/06 10:31:20;;;;;;;4.15;3.35;;;8.40;99.90;;;;;;5023176;28;20025;-57
2023/02/06 10:34:09;;;;;;;5.75;3.28;;;8.20;99.90;;;;;;5017832;28;20500;-60
2023/02/06 10:37:03;;;;;;;3.63;3.33;;;8.30;99.90;;;;;;5016552;28;20099;-60
2023/02/06 10:40:02;;;;;;;4.25;3.33;;;7.90;99.90;;;;;;5032414;28;20025;-62
2023/02/06 10:42:47;;;;;;;4.03;3.00;;;7.90;99.90;;;;;;5033042;28;20476;-61
2023/02/06 10:45:37;;;;;;;3.85;2.97;;;7.20;99.90;;;;;;5014460;28;20023;-62
2023/02/06 10:48:23;;;;;;;13.25;3.47;;;6.60;99.90;;;;;;5030211;28;20025;-62
2023/02/06 10:50:59;;;;;;;3.72;3.20;;;6.90;99.90;;;;;;5030268;28;20021;-62
2023/02/06 10:53:34;;;;;;;6.25;3.10;;;7.60;99.90;;;;;;5031141;28;20041;-63
2023/02/06 10:56:11;;;;;;;7.18;3.58;;;7.80;99.90;;;;;;5031536;28;20028;-63
2023/02/06 10:58:55;;;;;;;6.32;3.15;;;7.70;99.90;;;;;;5030413;28;20048;-62
2023/02/06 11:01:22;;;;;;;5.03;3.10;;;7.30;99.90;;;;;;5031066;28;20094;-61
2023/02/06 11:04:03;;;;;;;5.18;3.17;;;7.00;99.90;;;;;;5028567;28;20018;-55
2023/02/06 11:06:29;;;;;;;4.93;2.75;;;7.10;99.90;;;;;;5036071;28;20033;-60
2023/02/06 11:08:55;;;;;;;3.17;2.88;;;6.90;99.90;;;;;;5031019;28;20119;-54
2023/02/06 11:11:28;;;;;;;5.15;3.50;;;6.90;99.90;;;;;;5013391;28;20041;-62
2023/02/06 11:14:06;;;;;;;4.78;2.85;;;7.10;99.90;;;;;;5031190;28;20017;-59
2023/02/06 11:16:34;;;;;;;8.02;3.42;;;7.10;99.90;;;;;;5031153;28;20025;-62
2023/02/06 11:19:14;;;;;;;5.97;3.50;;;6.80;99.90;;;;;;5031363;28;20100;-63
2023/02/06 11:21:49;;;;;;;4.93;2.90;;;6.70;99.90;;;;;;5031188;28;20029;-64
2023/02/06 11:24:16;;;;;;;;;;;6.70;99.90;;;;;;5031484;28;20493;-58
2023/02/06 11:27:04;;;;;;;5.88;3.08;;;6.50;99.90;;;;;;5030826;28;19908;-60
2023/02/06 11:29:35;;;;;;;7.82;3.70;;;6.60;99.90;;;;;;5013819;28;20128;-63
2023/02/06 11:32:03;;;;;;;4.57;2.95;;;6.70;99.90;;;;;;5029835;28;20488;-62
2023/02/06 11:34:37;;;;;;;3.40;3.10;;;6.60;99.90;;;;;;5011486;28;20091;-59
2023/02/06 11:37:39;;;;;;;5.10;3.35;;;6.40;99.90;;;;;;5030105;28;20029;-58
2023/02/06 11:40:17;;;;;;;3.65;2.95;;;6.60;99.90;;;;;;5010812;28;20034;-60
2023/02/06 11:42:48;;;;;;;2.53;2.33;;;6.90;99.90;;;;;;5010931;28;20037;-60
2023/02/06 11:45:28;;;;;;;5.10;2.70;;;6.90;99.90;;;;;;5011181;28;20022;-60
2023/02/06 11:47:53;;;;;;;9.25;3.13;;;6.80;99.90;;;;;;4993920;28;20113;-58
2023/02/06 11:50:24;;;;;;;9.68;3.47;;;6.40;99.90;;;;;;4994120;28;20168;-60
2023/02/06 11:52:56;;;;;;;4.28;2.85;;;6.20;99.90;;;;;;5011553;28;20030;-59
2023/02/06 11:55:29;;;;;;;4.50;2.92;;;5.90;99.90;;;;;;5011600;28;20025;-61
2023/02/06 12:00:23;;;;;;;6.30;3.00;;;5.90;99.90;;;;;;5007739;28;20046;-47
2023/02/06 12:02:53;;;;;;;3.95;3.45;;;6.00;99.90;;;;;;5011474;28;20029;-50
2023/02/06 12:05:24;;;;;;;4.50;2.78;;;5.90;99.90;;;;;;5012206;28;20018;-53
2023/02/06 12:07:58;;;;;;;5.82;3.75;;;5.90;99.90;;;;;;5011815;28;20022;-48
2023/02/06 12:10:25;;;;;;;7.93;4.10;;;5.90;99.90;;;;;;4992898;28;20030;-51
2023/02/06 12:13:00;;;;;;;4.47;3.22;;;5.90;99.90;;;;;;4995947;28;20033;-51
2023/02/06 12:15:41;;;;;;;10.65;3.65;;;5.90;99.90;;;;;;4995640;28;20526;-48
2023/02/06 12:18:15;;;;;;;7.00;3.10;;;5.90;99.90;;;;;;4995390;28;20046;-45
2023/02/06 12:20:49;;;;;;;6.90;3.03;;;5.90;99.90;;;;;;4995316;28;20030;-49
2023/02/06 12:23:36;;;;;;;8.00;3.30;;;5.90;99.90;;;;;;4978017;28;20366;-49
2023/02/06 12:26:07;;;;;;;7.13;2.83;;;5.90;99.90;;;;;;4995999;28;20552;-51
2023/02/06 12:28:43;;;;;;;9.52;3.50;;;5.80;99.90;;;;;;4995027;28;20034;-52
2023/02/06 12:31:55;;;;;;;8.13;3.63;;;5.90;99.90;;;;;;4995314;28;20122;-50
2023/02/06 12:34:39;;;;;;;7.18;3.13;;;6.00;99.90;;;;;;4935247;29;20451;-48
2023/02/06 12:37:20;;;;;;;7.25;3.35;;;6.00;99.90;;;;;;4989935;28;20069;-52
2023/02/06 12:39:46;;;;;;;5.53;3.60;;;6.00;99.90;;;;;;4995006;28;20034;-52
2023/02/06 12:42:37;;;;;;;10.75;4.03;;;5.90;99.90;;;;;;4995501;28;20106;-48
2023/02/06 12:45:21;;;;;;;5.13;2.97;;;5.90;99.90;;;;;;4994654;28;20098;-51
2023/02/06 12:47:58;;;;;;;7.82;3.20;;;5.90;99.90;;;;;;4995367;28;20028;-47
2023/02/06 12:50:32;;;;;;;3.25;2.92;;;6.00;99.90;;;;;;4977730;28;20070;-52
2023/02/06 12:53:06;;;;;;;11.93;3.33;;;6.00;99.90;;;;;;4994985;28;20072;-52
2023/02/06 12:55:40;;;;;;;7.15;3.38;;;6.10;99.90;;;;;;4995058;28;20033;-49
2023/02/06 12:58:26;;;;;;;4.43;2.53;;;6.10;99.90;;;;;;4994738;28;20105;-50
2023/02/06 13:01:03;;;;;;;5.10;2.92;;;6.00;99.90;;;;;;4994470;28;20026;-49
2023/02/06 13:03:39;;;;;;;4.93;2.92;;;6.00;99.90;;;;;;4994412;28;20474;-52
2023/02/06 13:06:19;;;;;;;9.18;3.50;;;6.00;99.90;;;;;;4994792;28;20053;-48